createdAt,value
2023-05-03T00:02:12.400Z,11.16
2023-05-03T00:04:45.483Z,11.03
2023-05-03T00:07:13.700Z,11.10
2023-05-03T00:09:41.523Z,10.66
2023-05-03T00:12:09.429Z,10.87
2023-05-03T00:14:37.325Z,10.76
2023-05-03T00:17:05.012Z,10.80
2023-05-03T00:19:33.709Z,10.97
2023-05-03T00:22:03.868Z,10.92
2023-05-03T00:24:31.682Z,10.91
2023-05-03T00:26:59.498Z,10.69
2023-05-03T00:29:38.504Z,10.86
2023-05-03T00:32:07.693Z,10.64
2023-05-03T00:34:35.929Z,10.47
2023-05-03T00:37:04.998Z,10.81
2023-05-03T00:39:32.934Z,10.81
2023-05-03T00:42:01.361Z,10.54
2023-05-03T00:44:29.065Z,10.77
2023-05-03T00:46:56.970Z,10.75
2023-05-03T00:49:25.297Z,10.42
2023-05-03T00:51:53.106Z,10.44
2023-05-03T00:54:22.246Z,9.99
2023-05-03T00:56:52.193Z,10.39
2023-05-03T00:59:20.307Z,10.56
2023-05-03T01:01:49.293Z,10.09
2023-05-03T01:04:17.394Z,10.61
2023-05-03T01:06:46.351Z,10.13
2023-05-03T01:09:17.714Z,10.44
2023-05-03T01:11:52.956Z,10.16
2023-05-03T01:14:24.131Z,10.43
2023-05-03T01:16:54.120Z,10.07
2023-05-03T01:19:35.851Z,9.77
2023-05-03T01:22:10.143Z,10.41
2023-05-03T01:24:38.573Z,10.37
2023-05-03T01:27:09.317Z,9.70
2023-05-03T01:29:36.973Z,10.25
2023-05-03T01:32:05.834Z,10.11
2023-05-03T01:34:41.166Z,9.83
2023-05-03T01:37:10.420Z,10.14
2023-05-03T01:39:40.000Z,9.79
2023-05-03T01:42:08.939Z,9.71
2023-05-03T01:44:36.764Z,10.08
2023-05-03T01:47:04.551Z,8.10
2023-05-03T01:49:32.255Z,10.00
2023-05-03T01:51:59.835Z,9.92
2023-05-03T01:54:27.473Z,9.89
2023-05-03T01:56:55.370Z,9.88
2023-05-03T01:59:24.372Z,9.82
2023-05-03T02:01:52.082Z,9.80
2023-05-03T02:04:19.802Z,9.77
2023-05-03T02:06:47.563Z,9.74
2023-05-03T02:09:15.362Z,9.65
2023-05-03T02:11:43.870Z,9.31
2023-05-03T02:14:11.446Z,9.30
2023-05-03T02:16:40.834Z,9.68
2023-05-03T02:19:08.443Z,9.66
2023-05-03T02:21:36.271Z,9.62
2023-05-03T02:24:04.249Z,8.88
2023-05-03T02:26:32.015Z,9.57
2023-05-03T02:28:59.641Z,9.55
2023-05-03T02:31:27.761Z,9.55
2023-05-03T03:52:18.976Z,8.61
2023-05-03T03:55:07.938Z,8.63
2023-05-03T03:57:35.695Z,8.66
2023-05-03T04:00:05.499Z,8.68
2023-05-03T04:02:47.446Z,8.67
2023-05-03T04:05:16.883Z,8.66
2023-05-03T04:07:47.615Z,8.49
2023-05-03T04:10:15.411Z,8.16
2023-05-03T04:12:44.690Z,8.64
2023-05-03T04:15:12.890Z,8.39
2023-05-03T04:17:41.708Z,8.58
2023-05-03T04:20:11.455Z,8.65
2023-05-03T04:22:41.707Z,8.67
2023-05-03T04:25:14.264Z,7.87
2023-05-03T04:27:42.975Z,8.15
2023-05-03T04:30:12.244Z,8.74
2023-05-03T04:32:43.167Z,8.75
2023-05-03T04:35:12.833Z,8.78
2023-05-03T04:37:42.463Z,8.25
2023-05-03T04:40:13.145Z,8.13
2023-05-03T04:42:42.697Z,8.08
2023-05-03T04:45:14.850Z,7.94
2023-05-03T04:47:43.635Z,7.82
2023-05-03T04:50:20.150Z,8.45
2023-05-03T04:52:48.958Z,8.36
2023-05-03T04:55:19.626Z,8.47
2023-05-03T04:57:48.395Z,7.91
2023-05-03T05:00:17.763Z,8.53
2023-05-03T05:02:46.682Z,8.18
2023-05-03T05:05:18.007Z,8.68
2023-05-03T05:07:47.610Z,8.72
2023-05-03T05:10:16.120Z,8.16
2023-05-03T05:12:46.105Z,8.28
2023-05-03T05:15:14.640Z,8.38
2023-05-03T05:17:43.999Z,8.95
2023-05-03T05:20:13.844Z,9.00
2023-05-03T05:22:43.159Z,8.48
2023-05-03T05:25:12.190Z,9.02
2023-05-03T05:27:41.787Z,9.35
2023-05-03T05:30:12.875Z,9.59
2023-05-03T05:32:42.082Z,9.55
2023-05-03T05:35:12.604Z,10.00
2023-05-03T05:37:41.407Z,10.28
2023-05-03T05:40:11.418Z,11.16
2023-05-03T05:42:40.177Z,11.43
2023-05-03T05:45:10.804Z,10.54
2023-05-03T05:47:39.742Z,11.84
2023-05-03T05:50:16.852Z,12.09
2023-05-03T05:52:45.711Z,12.19
2023-05-03T05:55:15.105Z,12.66
2023-05-03T05:57:42.680Z,13.06
2023-05-03T06:00:15.752Z,13.40
2023-05-03T06:02:45.814Z,13.27
2023-05-03T06:05:20.506Z,13.25
2023-05-03T06:07:49.783Z,14.55
2023-05-03T06:10:18.368Z,14.70
2023-05-03T06:12:47.125Z,14.78
2023-05-03T06:15:14.974Z,15.34
2023-05-03T06:17:44.034Z,15.19
2023-05-03T06:20:13.782Z,16.15
2023-05-03T06:22:41.674Z,16.72
2023-05-03T06:25:10.509Z,17.02
2023-05-03T06:27:38.470Z,17.28
2023-05-03T06:30:07.419Z,17.26
2023-05-03T06:32:35.015Z,17.80
2023-05-03T06:35:04.040Z,17.94
2023-05-03T06:37:33.060Z,18.39
2023-05-03T06:40:00.791Z,18.82
2023-05-03T06:42:28.681Z,18.93
2023-05-03T06:44:58.596Z,19.32
2023-05-03T07:04:00.275Z,20.50
2023-05-03T07:06:28.053Z,21.47
2023-05-03T07:08:55.925Z,21.58
2023-05-03T07:11:24.739Z,20.44
2023-05-03T07:13:53.745Z,21.21
2023-05-03T07:16:21.731Z,22.04
2023-05-03T07:18:49.648Z,22.31
2023-05-03T07:21:18.787Z,22.53
2023-05-03T07:23:46.474Z,22.48
2023-05-03T07:26:15.227Z,21.87
2023-05-03T07:28:42.980Z,22.20
2023-05-03T07:31:12.057Z,22.37
2023-05-03T07:33:42.502Z,21.58
2023-05-03T07:36:10.281Z,22.68
2023-05-03T07:38:39.286Z,22.71
2023-05-03T07:41:07.045Z,22.71
2023-05-03T07:43:34.624Z,22.65
2023-05-03T07:46:02.227Z,22.87
2023-05-03T07:48:29.861Z,22.41
2023-05-03T07:50:57.458Z,23.12
2023-05-03T07:53:25.462Z,23.57
2023-05-03T07:55:56.681Z,23.54
2023-05-03T07:58:38.913Z,23.63
2023-05-03T08:01:07.485Z,24.02
2023-05-03T08:03:36.103Z,23.94
2023-05-03T08:06:06.343Z,24.68
2023-05-03T08:08:36.150Z,24.32
2023-05-03T08:11:10.075Z,24.80
2023-05-03T08:13:38.779Z,24.67
2023-05-03T08:24:07.816Z,25.84
2023-05-03T10:00:02.470Z,33.76
2023-05-03T12:43:37.488Z,22.31
2023-05-03T13:54:19.771Z,21.19
2023-05-03T14:01:36.132Z,22.42
2023-05-03T14:18:16.118Z,22.68
2023-05-03T14:35:11.216Z,22.42
2023-05-03T14:37:38.934Z,22.28
2023-05-03T14:40:08.900Z,20.96
2023-05-03T14:42:37.268Z,20.24
2023-05-03T14:45:10.930Z,21.63
2023-05-03T14:47:39.974Z,21.88
2023-05-03T14:50:13.050Z,19.96
2023-05-03T14:52:41.142Z,21.47
2023-05-03T14:55:09.993Z,21.70
2023-05-03T14:57:38.260Z,20.25
2023-05-03T15:00:14.478Z,21.42
2023-05-03T15:02:42.797Z,19.60
2023-05-03T15:05:13.008Z,22.14
2023-05-03T15:07:41.565Z,21.05
2023-05-03T15:10:10.559Z,21.28
2023-05-03T15:12:39.311Z,19.02
2023-05-03T15:15:13.098Z,21.90
2023-05-03T15:17:43.934Z,19.96
2023-05-03T15:20:15.353Z,21.87
2023-05-03T15:22:43.473Z,21.45
2023-05-03T15:25:11.829Z,20.65
2023-05-03T15:27:40.097Z,20.86
2023-05-03T15:30:12.410Z,21.30
2023-05-03T15:32:40.737Z,20.89
2023-05-03T15:35:09.581Z,21.75
2023-05-03T15:37:38.333Z,20.49
2023-05-03T15:40:09.463Z,20.76
2023-05-03T15:42:37.636Z,20.49
2023-05-03T15:45:07.322Z,20.90
2023-05-03T15:47:36.746Z,20.51
2023-05-03T15:50:06.468Z,21.22
2023-05-03T15:52:36.767Z,20.10
2023-05-03T15:55:07.458Z,21.22
2023-05-03T15:57:35.826Z,20.09
2023-05-03T16:00:06.672Z,21.09
2023-05-03T16:02:36.307Z,19.88
2023-05-03T16:05:04.124Z,20.50
2023-05-03T16:07:32.006Z,21.69
2023-05-03T16:09:59.903Z,20.32
2023-05-03T16:12:27.778Z,20.97
2023-05-03T16:14:55.650Z,19.51
2023-05-03T16:17:23.298Z,19.83
2023-05-03T16:19:52.661Z,19.90
2023-05-03T16:22:20.571Z,18.65
2023-05-03T16:24:48.459Z,20.57
2023-05-03T16:27:16.861Z,20.54
2023-05-03T16:29:44.862Z,20.47
2023-05-03T16:32:13.798Z,21.41
2023-05-03T16:34:42.610Z,21.34
2023-05-03T16:37:17.984Z,20.78
2023-05-03T16:39:48.328Z,18.77
2023-05-03T16:42:16.617Z,20.63
2023-05-03T16:44:44.789Z,19.25
2023-05-03T16:47:14.942Z,19.39
2023-05-03T16:49:42.750Z,20.49
2023-05-03T16:52:11.906Z,21.04
2023-05-03T16:54:40.223Z,20.98
2023-05-03T16:57:08.113Z,19.96
2023-05-03T16:59:36.412Z,20.43
2023-05-03T17:02:18.777Z,19.91
2023-05-03T17:04:50.230Z,17.62
2023-05-03T17:07:22.346Z,19.65
2023-05-03T17:09:51.332Z,20.01
2023-05-03T17:12:20.271Z,19.48
2023-05-03T17:14:48.517Z,20.08
2023-05-03T17:17:16.931Z,19.94
2023-05-03T17:19:47.150Z,19.96
2023-05-03T17:22:15.854Z,20.53
2023-05-03T17:24:46.565Z,18.86
2023-05-03T17:27:14.666Z,19.42
2023-05-03T17:29:43.855Z,20.39
2023-05-03T17:32:12.291Z,20.40
2023-05-03T17:34:40.561Z,19.71
2023-05-03T17:37:09.057Z,17.69
2023-05-03T17:39:37.104Z,19.47
2023-05-03T17:42:07.423Z,18.45
2023-05-03T17:44:35.584Z,19.24
2023-05-03T17:47:11.446Z,18.53
2023-05-03T17:49:41.260Z,18.64
2023-05-03T17:52:12.320Z,18.38
2023-05-03T17:54:51.033Z,18.04
2023-05-03T17:57:21.519Z,20.14
2023-05-03T17:59:50.220Z,18.20
2023-05-03T18:02:24.623Z,19.68
2023-05-03T18:04:52.929Z,19.11
2023-05-03T18:07:26.432Z,18.09
2023-05-03T18:09:54.344Z,17.82
2023-05-03T18:12:24.024Z,18.56
2023-05-03T18:14:51.883Z,19.06
2023-05-03T18:17:19.690Z,19.06
2023-05-03T18:19:47.527Z,18.17
2023-05-03T18:22:15.675Z,18.79
2023-05-03T18:24:43.495Z,17.59
2023-05-03T18:27:12.636Z,19.28
2023-05-03T18:29:41.922Z,18.16
2023-05-03T18:32:09.878Z,17.92
2023-05-03T18:34:38.267Z,17.08
2023-05-03T18:37:06.210Z,17.57
2023-05-03T18:39:34.781Z,16.60
2023-05-03T18:42:03.464Z,17.69
2023-05-03T18:44:32.645Z,17.83
2023-05-03T18:47:03.416Z,17.57
2023-05-03T20:02:22.069Z,17.37
2023-05-03T20:21:42.840Z,17.10
2023-05-03T20:45:17.796Z,16.26
2023-05-03T21:10:43.203Z,15.50
2023-05-03T21:14:25.784Z,16.38
2023-05-03T21:59:55.070Z,12.69
2023-05-03T22:02:24.139Z,15.54
2023-05-03T22:04:51.835Z,15.50
2023-05-03T22:07:19.502Z,15.41
2023-05-03T22:09:47.232Z,15.24
2023-05-03T22:12:23.610Z,15.41
2023-05-03T22:17:29.071Z,15.38
2023-05-03T22:19:56.695Z,15.33
2023-05-03T22:22:24.405Z,15.21
2023-05-03T22:24:51.992Z,15.30
2023-05-03T22:27:19.948Z,15.26
2023-05-03T22:29:47.518Z,15.01
2023-05-03T22:32:15.419Z,14.83
2023-05-03T22:34:45.282Z,15.16
2023-05-03T22:37:13.195Z,15.13
2023-05-03T22:39:40.835Z,15.09
2023-05-03T22:42:08.605Z,15.06
2023-05-03T22:44:37.579Z,14.85
2023-05-03T22:47:05.464Z,15.00
2023-05-03T22:49:33.032Z,14.96
2023-05-03T22:52:04.002Z,14.88
2023-05-03T22:54:31.602Z,14.91
2023-05-03T22:56:59.484Z,14.87
2023-05-03T22:59:27.267Z,14.82
2023-05-03T23:01:55.006Z,14.81
2023-05-03T23:04:22.670Z,14.73
2023-05-03T23:06:50.445Z,14.71
2023-05-03T23:09:19.696Z,14.67
2023-05-03T23:11:47.527Z,14.05
2023-05-03T23:14:15.292Z,14.58
2023-05-03T23:16:42.933Z,14.53
2023-05-03T23:19:10.934Z,14.49
2023-05-03T23:21:38.526Z,14.44
2023-05-03T23:24:07.151Z,14.40
2023-05-03T23:26:36.180Z,14.30
2023-05-03T23:29:04.289Z,14.35
2023-05-03T23:31:32.663Z,14.33
2023-05-03T23:34:02.336Z,14.33
2023-05-03T23:36:29.912Z,14.29
2023-05-03T23:38:57.864Z,14.29
2023-05-03T23:41:25.957Z,14.29
2023-05-03T23:43:55.141Z,14.20
2023-05-03T23:46:22.803Z,13.61
2023-05-03T23:48:50.711Z,13.95
2023-05-03T23:51:18.491Z,14.21
2023-05-03T23:53:46.256Z,13.55
2023-05-03T23:56:13.915Z,14.15
2023-05-03T23:58:41.665Z,14.06
